Time;durP1;ratioP1;P1;durP2;ratioP2;P2;SDS_P1;SDS_P2;PMS_P1;PMS_P2;Temp;Humidity;BMP_temperature;BMP_pressure;BME280_temperature;BME280_humidity;BME280_pressure;Samples;Min_cycle;Max_cycle;Signal;HPM_P1;HPM_P2
2022/07/23 00:00:12;;;;;;;4.22;3.80;;;;;;;15.33;100.00;100154.41;1667098;84;21609;-67
2022/07/23 00:02:39;;;;;;;7.62;3.40;;;;;;;15.30;100.00;100156.30;1669624;84;21222;-68
2022/07/23 00:05:06;;;;;;;5.08;3.37;;;;;;;15.28;100.00;100159.98;1650480;85;21065;-67
2022/07/23 00:07:34;;;;;;;7.53;4.10;;;;;;;15.24;100.00;100155.30;1675353;84;21078;-67
2022/07/23 00:10:02;;;;;;;7.15;3.55;;;;;;;15.19;100.00;100156.03;1669822;84;21181;-67
2022/07/23 00:12:29;;;;;;;5.67;3.85;;;;;;;15.14;100.00;100155.89;1669897;84;21552;-68
2022/07/23 00:14:55;;;;;;;5.42;3.60;;;;;;;15.09;100.00;100158.80;1669697;84;21132;-68
2022/07/23 00:17:23;;;;;;;3.80;3.40;;;;;;;15.03;100.00;100165.78;1669267;85;21021;-67
2022/07/23 00:19:49;;;;;;;9.33;4.08;;;;;;;14.97;100.00;100163.45;1666456;84;21038;-67
2022/07/23 00:22:17;;;;;;;4.40;3.30;;;;;;;14.96;100.00;100170.56;1666363;84;21174;-69
2022/07/23 00:24:43;;;;;;;6.42;3.87;;;;;;;14.95;100.00;100164.02;1666536;84;21128;-67
2022/07/23 00:27:10;;;;;;;7.17;4.03;;;;;;;14.94;100.00;100171.12;1663261;84;21246;-67
2022/07/23 00:29:37;;;;;;;5.87;3.98;;;;;;;14.93;100.00;100167.21;1669313;84;21196;-67
2022/07/23 00:32:05;;;;;;;6.72;4.00;;;;;;;14.89;100.00;100175.34;1669343;85;21176;-68
2022/07/23 00:34:32;;;;;;;6.60;3.87;;;;;;;14.86;100.00;100170.22;1663431;84;21065;-67
2022/07/23 00:36:59;;;;;;;5.55;4.12;;;;;;;14.86;100.00;100174.20;1665798;85;21069;-68
2022/07/23 00:39:27;;;;;;;6.53;4.03;;;;;;;14.83;100.00;100175.66;1666053;85;21179;-68
2022/07/23 00:41:53;;;;;;;5.17;3.42;;;;;;;14.81;100.00;100169.59;1669695;84;21105;-68
2022/07/23 00:44:24;;;;;;;4.42;3.92;;;;;;;14.79;100.00;100171.49;1667740;84;21039;-68
2022/07/23 00:46:54;;;;;;;6.55;3.47;;;;;;;14.78;100.00;100169.76;1670921;84;21038;-67
2022/07/23 00:49:22;;;;;;;3.22;2.72;;;;;;;14.77;100.00;100170.72;1663450;85;21014;-68
2022/07/23 00:51:49;;;;;;;4.65;3.72;;;;;;;14.80;100.00;100168.36;1669634;84;21112;-67
2022/07/23 00:54:17;;;;;;;9.13;3.98;;;;;;;14.79;100.00;100171.49;1647545;85;21137;-68
2022/07/23 00:56:45;;;;;;;6.10;4.15;;;;;;;14.81;100.00;100182.84;1660701;85;21071;-67
2022/07/23 00:59:12;;;;;;;5.47;3.87;;;;;;;14.79;100.00;100179.89;1657972;85;21102;-69
2022/07/23 01:01:38;;;;;;;6.15;3.92;;;;;;;14.77;100.00;100183.97;1658205;85;21631;-67
2022/07/23 01:04:06;;;;;;;6.22;3.80;;;;;;;14.77;100.00;100181.31;1658799;85;22502;-68
2022/07/23 01:06:37;;;;;;;8.88;4.03;;;;;;;14.77;100.00;100185.30;1657897;85;21588;-67
2022/07/23 01:09:05;;;;;;;4.08;3.65;;;;;;;14.72;100.00;100184.66;1657223;86;21091;-67
2022/07/23 01:11:36;;;;;;;8.95;3.95;;;;;;;14.71;100.00;100184.28;1659297;85;21101;-68
2022/07/23 01:14:12;;;;;;;5.33;3.77;;;;;;;14.67;100.00;100175.63;1660303;85;21121;-67
2022/07/23 01:16:41;;;;;;;5.85;4.00;;;;;;;14.67;100.00;100180.92;1658260;85;21147;-67
2022/07/23 01:19:09;;;;;;;4.50;3.75;;;;;;;14.67;100.00;100185.38;1661368;85;21074;-67
2022/07/23 01:21:42;;;;;;;6.58;3.70;;;;;;;14.65;100.00;100188.13;1658004;86;21108;-67
2022/07/23 01:24:12;;;;;;;5.55;3.65;;;;;;;14.67;100.00;100195.98;1658030;85;21107;-67
2022/07/23 01:26:44;;;;;;;5.60;3.75;;;;;;;14.69;100.00;100199.41;1656604;85;21067;-68
2022/07/23 01:29:10;;;;;;;7.13;4.10;;;;;;;14.65;100.00;100200.06;1658192;86;21119;-67
2022/07/23 01:31:40;;;;;;;4.47;4.08;;;;;;;14.65;100.00;100197.85;1659919;85;21156;-67
2022/07/23 01:34:07;;;;;;;8.13;4.10;;;;;;;14.62;100.00;100198.02;1658118;85;21097;-67
2022/07/23 01:36:35;;;;;;;8.15;4.08;;;;;;;14.58;100.00;100197.80;1656895;85;21139;-68
2022/07/23 01:39:06;;;;;;;5.78;3.55;;;;;;;14.53;100.00;100198.48;1653983;85;21071;-66
2022/07/23 01:41:34;;;;;;;6.65;4.15;;;;;;;14.53;100.00;100198.48;1689480;84;21731;-68
2022/07/23 01:44:01;;;;;;;5.37;4.22;;;;;;;14.52;100.00;100202.08;1689789;84;21533;-67
2022/07/23 01:46:29;;;;;;;7.50;3.67;;;;;;;14.47;100.00;100199.19;1688207;84;21061;-66
2022/07/23 01:48:56;;;;;;;6.37;3.52;;;;;;;14.46;100.00;100197.94;1690271;84;21096;-68
2022/07/23 01:51:59;;;;;;;4.78;3.72;;;;;;;14.47;100.00;100195.22;1688525;84;21108;-67
2022/07/23 01:54:13;;;;;;;4.45;3.72;;;;;;;14.45;100.00;100193.11;1687188;84;21179;-67
2022/07/23 01:56:40;;;;;;;5.55;3.47;;;;;;;14.44;100.00;100200.66;1690915;84;22289;-69
2022/07/23 01:59:07;;;;;;;7.40;3.72;;;;;;;14.44;100.00;100203.78;1672852;84;21120;-67
2022/07/23 02:01:35;;;;;;;7.62;3.42;;;;;;;14.45;100.00;100212.98;1654101;85;21530;-68
2022/07/23 02:04:03;;;;;;;4.45;3.85;;;;;;;14.45;100.00;100212.98;1650402;85;21030;-68
2022/07/23 02:06:32;;;;;;;3.33;3.05;;;;;;;14.43;100.00;100213.53;1666747;84;21202;-68
2022/07/23 02:09:00;;;;;;;9.43;4.20;;;;;;;14.38;100.00;100215.56;1671464;85;21117;-68
2022/07/23 02:11:27;;;;;;;5.75;4.60;;;;;;;14.34;100.00;100217.98;1664615;84;21010;-68
2022/07/23 02:13:53;;;;;;;8.53;4.40;;;;;;;14.32;100.00;100217.67;1665670;85;21086;-67
2022/07/23 02:16:21;;;;;;;6.12;4.42;;;;;;;14.31;100.00;100211.52;1666984;84;21227;-69
2022/07/23 02:18:48;;;;;;;5.75;4.65;;;;;;;14.33;100.00;100212.27;1669594;84;21196;-66
2022/07/23 02:21:15;;;;;;;5.87;4.22;;;;;;;14.32;100.00;100206.59;1654827;85;21153;-71
2022/07/23 02:23:41;;;;;;;9.80;4.37;;;;;;;14.35;100.00;100209.08;1665538;84;21090;-67
2022/07/23 02:26:08;;;;;;;5.55;4.92;;;;;;;14.36;100.00;100216.11;1669603;85;21117;-67
2022/07/23 02:28:37;;;;;;;5.47;4.50;;;;;;;14.39;100.00;100215.94;1673515;84;21061;-68
2022/07/23 02:31:04;;;;;;;7.40;5.03;;;;;;;14.39;100.00;100222.56;1668659;84;21236;-67
2022/07/23 02:33:30;;;;;;;6.72;3.90;;;;;;;14.40;100.00;100224.30;1666429;85;21072;-67
2022/07/23 02:35:57;;;;;;;6.60;4.40;;;;;;;14.36;100.00;100220.56;1669816;84;21050;-68
2022/07/23 02:38:24;;;;;;;4.78;3.80;;;;;;;14.35;100.00;100224.97;1668620;84;21097;-67
2022/07/23 02:40:50;;;;;;;5.90;5.00;;;;;;;14.35;100.00;100221.00;1665525;84;21133;-68
2022/07/23 02:43:18;;;;;;;9.18;4.10;;;;;;;14.36;100.00;100224.05;1667283;84;21310;-68
2022/07/23 02:45:45;;;;;;;9.53;4.35;;;;;;;14.37;100.00;100225.75;1663339;84;21212;-67
2022/07/23 02:48:15;;;;;;;8.63;4.30;;;;;;;14.36;100.00;100221.41;1671625;84;21133;-67
2022/07/23 02:50:43;;;;;;;6.08;3.55;;;;;;;14.37;100.00;100215.63;1666305;84;21573;-67
2022/07/23 02:53:11;;;;;;;15.50;5.10;;;;;;;14.40;100.00;100214.14;1664899;84;21601;-65
2022/07/23 02:55:39;;;;;;;5.10;4.60;;;;;;;14.41;100.00;100219.84;1647363;86;21875;-66
2022/07/23 02:58:05;;;;;;;5.78;4.85;;;;;;;14.42;100.00;100219.78;1660639;85;22052;-67
2022/07/23 03:00:32;;;;;;;7.22;5.42;;;;;;;14.46;100.00;100218.66;1658653;85;21545;-68
2022/07/23 03:02:59;;;;;;;9.20;4.92;;;;;;;14.54;100.00;100220.05;1657354;86;21593;-67
2022/07/23 03:05:26;;;;;;;5.80;5.10;;;;;;;14.63;100.00;100223.58;1658642;85;22147;-67
2022/07/23 03:07:53;;;;;;;5.97;5.40;;;;;;;14.74;100.00;100228.33;1657996;85;21219;-68
2022/07/23 03:10:21;;;;;;;5.30;4.80;;;;;;;14.86;100.00;100236.95;1659177;85;21054;-66
2022/07/23 03:12:48;;;;;;;6.03;5.12;;;;;;;14.99;100.00;100241.14;1659325;86;21109;-67
2022/07/23 03:15:15;;;;;;;9.93;5.35;;;;;;;15.12;100.00;100232.92;1656855;85;21063;-67
2022/07/23 03:17:43;;;;;;;5.40;4.12;;;;;;;15.27;100.00;100233.39;1659216;86;21081;-68
2022/07/23 03:20:10;;;;;;;5.45;4.92;;;;;;;15.46;100.00;100240.33;1659190;86;21339;-67
2022/07/23 03:22:40;;;;;;;7.50;5.08;;;;;;;15.58;100.00;100239.67;1655996;85;21302;-67
2022/07/23 03:25:09;;;;;;;5.15;4.65;;;;;;;15.77;100.00;100239.98;1658699;85;21125;-67
2022/07/23 03:27:35;;;;;;;9.93;5.45;;;;;;;15.93;100.00;100242.15;1660235;86;21458;-68
2022/07/23 03:30:05;;;;;;;5.62;5.10;;;;;;;16.10;100.00;100242.05;1660282;85;21259;-67
2022/07/23 03:32:33;;;;;;;8.33;5.08;;;;;;;16.27;100.00;100245.52;1658011;85;21172;-66
2022/07/23 03:35:00;;;;;;;5.67;4.55;;;;;;;16.42;100.00;100233.95;1658001;86;21053;-67
2022/07/23 03:37:27;;;;;;;5.95;3.90;;;;;;;16.58;100.00;100234.73;1658170;85;21127;-67
2022/07/23 03:39:57;;;;;;;7.83;5.35;;;;;;;16.83;100.00;100245.26;1658475;85;21130;-67
2022/07/23 03:42:24;;;;;;;6.40;4.67;;;;;;;17.11;100.00;100244.88;1657165;85;21138;-70
2022/07/23 03:44:51;;;;;;;6.78;4.53;;;;;;;17.56;100.00;100243.78;1658222;85;21230;-67
2022/07/23 03:47:21;;;;;;;8.23;5.08;;;;;;;18.11;100.00;100236.69;1657035;85;21203;-67
2022/07/23 03:49:48;;;;;;;5.60;4.45;;;;;;;18.64;100.00;100234.85;1660498;85;21006;-67
2022/07/23 03:52:16;;;;;;;8.23;4.40;;;;;;;19.25;100.00;100236.38;1659176;84;22023;-66
2022/07/23 03:54:42;;;;;;;6.15;4.22;;;;;;;19.91;100.00;100234.77;1659267;85;21714;-68
2022/07/23 03:57:09;;;;;;;9.10;5.25;;;;;;;20.39;98.14;100237.88;1656737;86;21431;-69
2022/07/23 03:59:38;;;;;;;5.03;4.20;;;;;;;20.83;95.57;100234.95;1657948;85;21606;-67
2022/07/23 04:02:05;;;;;;;5.67;4.12;;;;;;;21.30;92.73;100233.00;1659210;85;21010;-68
2022/07/23 04:04:31;;;;;;;5.42;4.50;;;;;;;21.77;89.92;100236.38;1657312;85;21057;-68
2022/07/23 04:06:59;;;;;;;5.55;4.20;;;;;;;22.11;86.89;100236.23;1658566;85;21094;-68
2022/07/23 04:09:26;;;;;;;4.47;3.90;;;;;;;22.33;85.58;100239.34;1659425;85;21369;-68
2022/07/23 04:11:53;;;;;;;4.53;3.70;;;;;;;22.65;84.55;100231.23;1659031;85;22286;-67
2022/07/23 04:14:20;;;;;;;4.17;2.90;;;;;;;23.06;82.64;100230.85;1656922;86;21130;-66
2022/07/23 04:16:47;;;;;;;7.53;2.90;;;;;;;23.42;80.01;100228.55;1657725;85;21114;-66
2022/07/23 04:19:14;;;;;;;4.87;3.05;;;;;;;23.84;78.16;100231.10;1659062;85;21120;-67
2022/07/23 04:21:44;;;;;;;6.28;3.27;;;;;;;24.18;75.88;100233.36;1657630;86;21650;-67
2022/07/23 04:24:10;;;;;;;4.12;2.70;;;;;;;24.59;74.04;100234.06;1657852;85;21115;-68
2022/07/23 04:26:37;;;;;;;4.75;2.65;;;;;;;24.88;72.40;100232.14;1659080;85;21097;-67
2022/07/23 04:29:05;;;;;;;3.47;2.55;;;;;;;25.15;65.92;100235.89;1660883;85;21010;-66
2022/07/23 04:31:32;;;;;;;3.83;2.20;;;;;;;25.42;63.20;100228.81;1658526;85;21094;-67
2022/07/23 04:33:59;;;;;;;5.78;2.60;;;;;;;25.68;61.47;100232.51;1658429;85;21075;-68
2022/07/23 04:36:26;;;;;;;6.12;2.52;;;;;;;25.84;60.30;100218.85;1656814;85;21047;-68
2022/07/23 04:38:54;;;;;;;3.70;2.37;;;;;;;26.00;59.14;100231.18;1657066;86;21099;-68
2022/07/23 04:41:20;;;;;;;4.10;2.33;;;;;;;26.04;59.01;100219.05;1658142;85;21119;-68
2022/07/23 04:43:48;;;;;;;6.47;2.30;;;;;;;26.11;58.22;100217.45;1586323;89;21751;-67
2022/07/23 04:46:15;;;;;;;3.15;2.17;;;;;;;26.07;58.07;100220.63;1610278;88;22202;-67
2022/07/23 04:48:44;;;;;;;4.40;2.30;;;;;;;26.15;57.90;100221.52;1608928;88;21611;-68
2022/07/23 04:52:04;;;;;;;4.28;2.20;;;;;;;26.41;56.56;100219.39;1796519;79;22746;-66
2022/07/23 04:54:31;;;;;;;3.75;2.37;;;;;;;26.50;56.26;100219.80;1756563;81;21018;-67
2022/07/23 04:56:59;;;;;;;2.20;2.00;;;;;;;26.74;55.85;100224.53;1756291;81;21586;-67
2022/07/23 04:59:27;;;;;;;7.47;2.47;;;;;;;27.10;54.62;100226.23;1756455;81;21000;-68
2022/07/23 05:01:55;;;;;;;5.12;2.50;;;;;;;27.49;53.45;100231.16;1756232;81;20975;-68
2022/07/23 05:04:22;;;;;;;4.80;2.47;;;;;;;27.68;52.44;100228.19;1756838;81;21002;-67
2022/07/23 05:06:49;;;;;;;3.90;1.98;;;;;;;27.86;51.49;100221.34;1756545;81;21047;-67
2022/07/23 05:09:16;;;;;;;2.37;1.85;;;;;;;28.09;50.76;100224.23;1756821;81;21230;-67
2022/07/23 05:11:43;;;;;;;6.35;2.08;;;;;;;28.27;49.65;100221.85;1756362;81;21079;-68
2022/07/23 05:14:12;;;;;;;3.35;1.90;;;;;;;28.33;48.21;100227.95;1756290;81;21082;-68
2022/07/23 05:16:40;;;;;;;4.58;2.10;;;;;;;28.26;48.62;100231.84;1756490;81;21094;-70
2022/07/23 05:19:10;;;;;;;4.97;2.20;;;;;;;28.33;47.89;100229.31;1693813;84;21633;-69
2022/07/23 05:21:37;;;;;;;3.58;2.05;;;;;;;28.40;47.90;100232.52;1709305;83;21519;-67
2022/07/23 05:24:05;;;;;;;2.67;2.00;;;;;;;28.44;48.05;100234.39;1708934;84;21683;-68
2022/07/23 05:26:31;;;;;;;2.10;1.90;;;;;;;28.60;47.88;100226.27;1709213;84;21600;-67
2022/07/23 05:28:58;;;;;;;3.60;2.12;;;;;;;28.73;47.64;100227.59;1709220;83;21116;-67
2022/07/23 05:31:26;;;;;;;2.55;1.72;;;;;;;28.80;47.53;100223.17;1709279;84;21105;-68
2022/07/23 05:33:52;;;;;;;6.45;1.90;;;;;;;28.94;46.82;100227.91;1722868;83;21938;-69
2022/07/23 05:36:19;;;;;;;3.00;1.90;;;;;;;28.91;46.40;100230.94;1723024;83;21581;-67
2022/07/23 05:38:50;;;;;;;4.00;2.15;;;;;;;28.86;46.60;100231.45;1694850;83;21075;-67
2022/07/23 05:41:17;;;;;;;6.28;2.10;;;;;;;28.95;46.49;100227.39;1693882;84;21107;-67
2022/07/23 05:43:44;;;;;;;6.85;2.22;;;;;;;28.95;46.52;100232.29;1693685;84;21092;-68
2022/07/23 05:46:11;;;;;;;2.92;2.05;;;;;;;28.94;45.94;100227.03;1694067;84;21442;-67
2022/07/23 05:48:41;;;;;;;1.67;1.52;;;;;;;28.92;45.17;100225.88;1693909;84;21044;-68
2022/07/23 05:51:26;;;;;;;3.75;1.90;;;;;;;28.87;44.94;100237.72;1684754;84;21104;-68
2022/07/23 05:53:53;;;;;;;5.78;2.02;;;;;;;28.73;44.73;100233.02;1713723;83;21085;-68
2022/07/23 05:56:21;;;;;;;2.40;2.00;;;;;;;28.55;45.46;100243.55;1679057;85;21014;-69
2022/07/23 05:58:49;;;;;;;4.90;2.50;;;;;;;28.58;46.10;100240.49;1713750;83;21303;-68
2022/07/23 06:01:17;;;;;;;2.77;1.70;;;;;;;28.76;45.79;100238.95;1679050;85;21027;-67
2022/07/23 06:03:45;;;;;;;5.65;1.90;;;;;;;29.04;45.55;100233.95;1678063;85;21033;-68
2022/07/23 06:06:12;;;;;;;3.37;2.10;;;;;;;29.35;44.53;100237.25;1713286;83;21054;-68
2022/07/23 06:08:40;;;;;;;3.20;1.72;;;;;;;29.53;44.19;100229.38;1713350;83;21041;-69
2022/07/23 06:11:08;;;;;;;2.50;1.80;;;;;;;29.75;43.25;100226.39;1713102;83;21515;-69
2022/07/23 06:13:37;;;;;;;1.67;1.57;;;;;;;29.96;42.51;100221.70;1713298;82;21078;-68
2022/07/23 06:16:04;;;;;;;1.45;1.30;;;;;;;30.16;41.21;100217.47;1678566;85;21057;-68
2022/07/23 06:18:31;;;;;;;6.33;1.92;;;;;;;30.27;40.23;100222.47;1712961;83;21077;-69
2022/07/23 06:20:58;;;;;;;3.20;1.80;;;;;;;30.21;39.98;100219.11;1678566;85;21080;-68
2022/07/23 06:23:25;;;;;;;3.30;1.85;;;;;;;30.17;40.82;100216.42;1713075;83;21861;-68
2022/07/23 06:25:51;;;;;;;2.77;1.60;;;;;;;30.39;40.26;100219.31;1678322;85;22222;-69
2022/07/23 06:28:20;;;;;;;2.98;1.60;;;;;;;30.59;39.91;100217.77;1712728;83;21097;-68
2022/07/23 06:30:48;;;;;;;1.95;1.40;;;;;;;30.88;38.86;100222.44;1678346;85;21124;-69
2022/07/23 06:33:15;;;;;;;5.40;1.60;;;;;;;30.94;38.38;100220.83;1713019;83;21120;-67
2022/07/23 06:35:42;;;;;;;6.95;1.70;;;;;;;30.91;37.71;100222.57;1678685;85;21112;-70
2022/07/23 06:38:10;;;;;;;6.12;1.47;;;;;;;30.97;37.20;100223.19;1712960;83;21042;-69
2022/07/23 06:40:37;;;;;;;3.42;1.72;;;;;;;31.10;36.96;100228.79;1678388;85;21061;-68
2022/07/23 06:43:04;;;;;;;2.33;1.70;;;;;;;31.07;36.36;100226.45;1678290;85;21064;-69
2022/07/23 06:45:33;;;;;;;4.28;1.80;;;;;;;30.94;37.17;100223.55;1713086;83;21026;-68
2022/07/23 06:47:59;;;;;;;5.33;1.65;;;;;;;30.98;37.87;100229.47;1678564;85;21086;-70
2022/07/23 06:50:26;;;;;;;5.10;1.50;;;;;;;31.21;37.20;100226.64;1678822;84;21052;-68
2022/07/23 06:52:53;;;;;;;2.42;1.50;;;;;;;31.41;36.70;100227.78;1720472;82;21006;-67
2022/07/23 06:55:19;;;;;;;2.60;1.45;;;;;;;31.48;36.82;100234.14;1720565;83;21532;-67
2022/07/23 06:57:46;;;;;;;1.98;1.30;;;;;;;31.54;37.13;100229.30;1720741;83;21137;-68
2022/07/23 07:00:14;;;;;;;2.10;1.45;;;;;;;31.79;36.44;100233.02;1720825;82;21238;-68
2022/07/23 07:02:41;;;;;;;3.60;1.40;;;;;;;32.03;36.08;100234.58;1720901;82;21066;-68
2022/07/23 07:05:08;;;;;;;5.87;2.02;;;;;;;32.05;35.12;100233.00;1720896;83;21653;-68
2022/07/23 07:07:36;;;;;;;2.47;1.50;;;;;;;31.86;35.83;100227.64;1720670;83;21055;-68
2022/07/23 07:10:04;;;;;;;2.42;1.40;;;;;;;31.89;36.94;100231.37;1702214;83;21047;-70
2022/07/23 07:12:31;;;;;;;4.50;1.45;;;;;;;32.16;35.39;100235.20;1720775;83;21859;-67
2022/07/23 07:14:59;;;;;;;4.08;1.60;;;;;;;32.48;34.84;100228.88;1720614;82;21095;-68
2022/07/23 07:17:26;;;;;;;1.75;1.27;;;;;;;32.65;34.53;100224.86;1720470;83;21031;-68
2022/07/23 07:19:53;;;;;;;2.55;1.45;;;;;;;32.74;34.26;100226.39;1720729;82;21032;-69
2022/07/23 07:22:19;;;;;;;4.85;1.50;;;;;;;32.80;33.40;100229.66;1720686;83;21098;-68
2022/07/23 07:24:46;;;;;;;1.62;1.47;;;;;;;32.76;33.79;100226.17;1720734;82;21363;-67
2022/07/23 07:27:13;;;;;;;2.87;1.50;;;;;;;32.73;33.40;100232.03;1720445;82;21087;-70
2022/07/23 07:29:40;;;;;;;2.80;1.50;;;;;;;32.64;33.09;100227.78;1720461;82;21023;-68
2022/07/23 07:32:07;;;;;;;1.67;1.40;;;;;;;32.61;33.44;100237.20;1720494;83;21043;-69
2022/07/23 07:34:33;;;;;;;4.10;1.50;;;;;;;32.68;33.24;100227.71;1720643;82;21067;-69
2022/07/23 07:37:01;;;;;;;6.33;1.95;;;;;;;32.84;32.20;100236.10;1720750;83;21351;-68
2022/07/23 07:39:28;;;;;;;3.70;1.62;;;;;;;32.72;32.70;100230.37;1720512;83;20991;-69
2022/07/23 07:41:54;;;;;;;3.52;1.60;;;;;;;32.66;32.67;100231.98;1720647;82;21087;-69
2022/07/23 07:44:21;;;;;;;2.55;1.47;;;;;;;32.58;33.24;100237.61;1720572;82;21111;-69
2022/07/23 07:46:47;;;;;;;4.53;1.40;;;;;;;32.58;33.49;100232.16;1720660;82;21083;-70
2022/07/23 07:49:14;;;;;;;2.40;1.10;;;;;;;32.49;31.86;100230.05;1720632;83;21788;-68
2022/07/23 07:51:41;;;;;;;5.17;1.42;;;;;;;32.36;32.01;100232.14;1717296;82;21655;-68
2022/07/23 07:54:07;;;;;;;7.10;1.30;;;;;;;32.24;32.71;100231.00;1712694;83;21578;-69
2022/07/23 07:56:34;;;;;;;1.32;1.05;;;;;;;32.17;33.30;100226.84;1678378;85;21040;-69
2022/07/23 07:59:01;;;;;;;5.47;1.42;;;;;;;32.07;32.67;100232.28;1713191;83;21062;-68
2022/07/23 08:01:27;;;;;;;3.90;1.47;;;;;;;32.06;33.28;100227.89;1678404;85;21129;-68
2022/07/23 08:03:54;;;;;;;4.22;1.37;;;;;;;32.16;33.52;100229.75;1712945;83;21289;-69
2022/07/23 08:06:21;;;;;;;1.35;1.25;;;;;;;32.50;32.38;100232.25;1678338;85;21056;-68
2022/07/23 08:08:48;;;;;;;2.87;1.10;;;;;;;32.52;31.50;100232.94;1678227;85;21564;-69
2022/07/23 08:11:14;;;;;;;3.55;1.42;;;;;;;32.25;32.03;100225.86;1712958;83;21081;-69
2022/07/23 08:13:44;;;;;;;3.45;1.20;;;;;;;32.09;32.43;100232.94;1712900;82;21210;-67
2022/07/23 08:16:11;;;;;;;1.52;1.30;;;;;;;32.01;31.79;100235.81;1678410;85;21597;-68
2022/07/23 08:18:38;;;;;;;2.00;1.20;;;;;;;31.86;31.97;100235.29;1678320;85;21041;-68
2022/07/23 08:21:05;;;;;;;2.00;1.25;;;;;;;31.70;32.63;100236.41;1713078;83;21586;-67
2022/07/23 08:23:32;;;;;;;2.52;1.10;;;;;;;31.69;32.39;100237.95;1678261;85;21608;-68
2022/07/23 08:25:59;;;;;;;5.35;1.50;;;;;;;31.70;31.55;100248.66;1713002;83;21225;-70
2022/07/23 08:28:25;;;;;;;5.60;1.32;;;;;;;31.80;31.65;100241.53;1712666;82;21082;-68
2022/07/23 08:30:52;;;;;;;2.40;1.30;;;;;;;31.83;32.25;100239.77;1678666;85;21116;-69
2022/07/23 08:33:19;;;;;;;3.92;1.47;;;;;;;31.90;33.31;100248.02;1712958;83;21061;-70
2022/07/23 08:35:47;;;;;;;6.90;1.35;;;;;;;31.94;32.46;100241.98;1678603;85;21129;-68
2022/07/23 08:38:17;;;;;;;3.98;1.15;;;;;;;31.97;32.38;100233.45;1678505;85;21202;-69
2022/07/23 08:40:47;;;;;;;5.13;1.50;;;;;;;31.89;32.83;100232.73;1713313;83;21025;-68
2022/07/23 08:43:18;;;;;;;5.43;1.53;;;;;;;32.12;32.65;100233.41;1678552;85;21032;-69
2022/07/23 08:45:48;;;;;;;3.40;1.30;;;;;;;32.35;32.14;100237.28;1678068;85;21080;-67
2022/07/23 08:48:19;;;;;;;5.20;1.27;;;;;;;32.67;31.68;100229.60;1712876;83;21621;-68
2022/07/23 08:50:52;;;;;;;2.85;1.20;;;;;;;32.80;30.13;100231.55;1678359;85;21314;-66
2022/07/23 08:53:20;;;;;;;3.42;1.35;;;;;;;32.65;30.32;100233.05;1724760;82;20986;-68
2022/07/23 08:55:50;;;;;;;2.75;1.10;;;;;;;32.59;31.46;100234.66;1691090;84;21111;-68
2022/07/23 08:58:18;;;;;;;2.02;1.05;;;;;;;32.72;31.92;100220.30;1691251;84;21104;-69
2022/07/23 09:00:45;;;;;;;3.08;1.57;;;;;;;32.90;29.07;100224.38;1691121;84;21147;-67
2022/07/23 09:03:25;;;;;;;3.67;1.57;;;;;;;32.87;30.92;100225.62;1691002;84;21315;-67
2022/07/23 09:05:53;;;;;;;2.52;1.10;;;;;;;32.85;31.39;100226.87;1690104;84;21529;-69
2022/07/23 09:08:21;;;;;;;2.58;1.60;;;;;;;32.97;31.47;100214.38;1690924;84;21623;-67
2022/07/23 09:10:58;;;;;;;2.30;1.27;;;;;;;33.14;31.66;100217.10;1690943;84;21114;-68
2022/07/23 09:13:42;;;;;;;5.30;1.62;;;;;;;33.17;31.69;100215.85;1690949;84;21052;-68
2022/07/23 09:16:29;;;;;;;2.67;1.22;;;;;;;33.21;31.03;100213.87;1691019;84;22014;-67
2022/07/23 09:18:59;;;;;;;3.00;1.30;;;;;;;33.34;30.85;100212.27;1690757;84;21040;-68
2022/07/23 09:21:29;;;;;;;3.98;1.22;;;;;;;33.66;30.74;100208.50;1691236;84;21107;-68
2022/07/23 09:24:10;;;;;;;3.80;1.40;;;;;;;33.49;30.90;100212.94;1690923;84;21095;-69
2022/07/23 09:26:40;;;;;;;;;;;;;;;33.25;31.03;100212.97;1693535;84;21056;-68
2022/07/23 09:29:20;;;;;;;3.20;1.40;;;;;;;33.14;31.46;100208.92;1673336;85;20212;-67
2022/07/23 09:31:54;;;;;;;2.50;1.57;;;;;;;33.26;31.65;100213.27;1673948;85;21082;-68
2022/07/23 09:34:26;;;;;;;2.45;1.40;;;;;;;33.43;31.38;100208.32;1673492;85;21079;-68
2022/07/23 09:36:59;;;;;;;6.30;1.52;;;;;;;33.37;31.88;100204.50;1673258;85;21085;-69
2022/07/23 09:39:32;;;;;;;2.87;1.32;;;;;;;33.40;30.60;100195.89;1648447;85;21187;-69
2022/07/23 09:42:25;;;;;;;6.75;1.60;;;;;;;33.29;30.76;100195.64;1673427;85;21053;-68
2022/07/23 09:44:56;;;;;;;1.37;1.12;;;;;;;33.52;30.72;100192.58;1673388;85;21561;-68
2022/07/23 09:47:24;;;;;;;2.95;1.30;;;;;;;33.69;29.97;100198.55;1673926;85;28278;-68
2022/07/23 09:50:11;;;;;;;3.00;1.30;;;;;;;34.04;30.04;100204.16;1673799;85;21034;-70
2022/07/23 09:52:48;;;;;;;1.87;1.30;;;;;;;34.11;29.56;100202.00;1669625;85;21105;-69
2022/07/23 09:55:17;;;;;;;8.23;1.42;;;;;;;33.80;29.65;100207.52;1670242;85;21868;-68
2022/07/23 09:57:45;;;;;;;2.50;1.02;;;;;;;33.37;28.91;100209.13;1670897;85;21068;-69
2022/07/23 10:00:13;;;;;;;4.47;1.30;;;;;;;32.86;29.08;100209.48;1670670;85;21268;-69
2022/07/23 10:02:39;;;;;;;3.47;1.50;;;;;;;32.50;30.75;100204.47;1670950;85;21108;-69
2022/07/23 10:05:25;;;;;;;2.08;0.98;;;;;;;32.54;31.76;100204.96;1685970;85;21053;-70
2022/07/23 10:08:11;;;;;;;3.30;1.15;;;;;;;32.88;31.18;100200.58;1682148;85;22098;-69
2022/07/23 10:10:56;;;;;;;2.87;1.20;;;;;;;33.40;30.71;100194.53;1678583;85;21037;-68
2022/07/23 10:13:57;;;;;;;3.37;1.22;;;;;;;33.96;29.91;100198.92;1678515;85;21116;-68
2022/07/23 10:16:21;;;;;;;3.92;1.30;;;;;;;34.13;29.96;100190.34;1677769;85;21498;-68
2022/07/23 10:18:47;;;;;;;2.85;1.50;;;;;;;34.18;29.82;100194.64;1713068;83;21586;-68
2022/07/23 10:21:25;;;;;;;2.87;1.32;;;;;;;34.04;30.04;100197.86;1712966;82;21243;-68
2022/07/23 10:24:22;;;;;;;3.40;1.22;;;;;;;33.76;30.36;100192.05;1712932;82;21120;-67
2022/07/23 10:27:27;;;;;;;2.17;1.30;;;;;;;33.67;30.84;100186.99;1678603;85;21163;-67
2022/07/23 10:30:07;;;;;;;1.47;1.27;;;;;;;33.90;30.53;100184.72;1712844;82;21027;-69
2022/07/23 10:33:05;;;;;;;3.80;1.42;;;;;;;34.27;29.93;100181.09;1713051;83;21148;-69
2022/07/23 10:35:39;;;;;;;2.85;1.05;;;;;;;34.33;29.71;100188.45;1678548;85;21810;-68
2022/07/23 10:38:15;;;;;;;2.87;1.05;;;;;;;33.91;29.42;100187.75;1712611;82;21531;-68
2022/07/23 10:41:03;;;;;;;3.62;1.10;;;;;;;33.68;29.58;100185.93;1712687;82;21050;-69
2022/07/23 10:43:31;;;;;;;5.12;1.20;;;;;;;33.74;29.56;100186.48;1678300;85;21088;-70
2022/07/23 10:49:29;;;;;;;2.52;1.27;;;;;;;33.94;28.88;100187.89;1686334;84;21205;-70
2022/07/23 10:52:21;;;;;;;4.08;1.10;;;;;;;33.76;28.35;100176.20;1678871;85;21117;-68
2022/07/23 10:54:51;;;;;;;4.45;1.22;;;;;;;33.51;28.77;100176.73;1720477;83;21575;-67
2022/07/23 10:57:26;;;;;;;3.08;1.00;;;;;;;33.48;29.25;100168.95;1720432;82;21578;-68
2022/07/23 11:00:14;;;;;;;1.75;1.30;;;;;;;33.70;29.59;100166.09;1720871;82;21126;-68
2022/07/23 11:02:46;;;;;;;5.87;1.50;;;;;;;34.05;29.79;100155.31;1720956;82;21488;-67
2022/07/23 11:05:21;;;;;;;3.22;1.00;;;;;;;34.09;28.22;100163.08;1720495;83;21063;-68
2022/07/23 11:08:11;;;;;;;1.15;0.93;;;;;;;33.70;28.74;100159.27;1720171;83;21102;-68
2022/07/23 11:10:54;;;;;;;1.47;1.02;;;;;;;33.43;28.82;100159.19;1720772;83;21479;-68
2022/07/23 11:13:34;;;;;;;2.40;1.30;;;;;;;33.58;29.55;100154.41;1718476;83;21126;-69
2022/07/23 11:16:05;;;;;;;;;;;;;;;33.78;29.32;100152.25;1723464;83;21220;-68
2022/07/23 11:18:54;;;;;;;4.42;1.27;;;;;;;33.70;29.22;100159.27;1720485;83;20198;-69
2022/07/23 11:21:28;;;;;;;0.98;0.80;;;;;;;33.69;28.80;100157.59;1720757;82;21094;-67
2022/07/23 11:24:13;;;;;;;3.15;1.00;;;;;;;33.76;28.91;100163.91;1720660;82;21099;-69
2022/07/23 11:26:55;;;;;;;1.98;1.10;;;;;;;34.04;27.70;100153.62;1721023;82;21035;-68
2022/07/23 11:29:32;;;;;;;2.90;1.30;;;;;;;34.18;28.33;100154.48;1720766;83;21254;-68
2022/07/23 11:32:25;;;;;;;3.75;1.05;;;;;;;34.50;28.30;100145.64;1720772;83;21020;-67
2022/07/23 11:34:53;;;;;;;1.77;1.22;;;;;;;34.86;27.63;100151.46;1702491;83;21027;-67
2022/07/23 11:37:40;;;;;;;2.05;1.10;;;;;;;34.89;27.18;100153.75;1720802;83;21032;-69